createdAt,value
2018-02-19T00:01:20.056Z,39.17
2018-02-19T00:03:48.370Z,39.57
2018-02-19T00:06:17.440Z,38.83
2018-02-19T00:08:45.751Z,39.00
2018-02-19T00:11:14.049Z,40.00
2018-02-19T00:13:42.347Z,40.13
2018-02-19T00:16:10.684Z,39.03
2018-02-19T00:18:39.759Z,39.37
2018-02-19T00:21:08.817Z,40.30
2018-02-19T00:23:37.121Z,40.40
2018-02-19T00:26:05.424Z,40.47
2018-02-19T00:28:33.727Z,38.73
2018-02-19T00:31:02.810Z,38.47
2018-02-19T00:33:31.122Z,41.00
2018-02-19T00:36:00.198Z,39.87
2018-02-19T00:38:28.518Z,39.90
2018-02-19T00:40:56.826Z,40.63
2018-02-19T00:43:24.782Z,39.50
2018-02-19T00:45:53.079Z,39.53
2018-02-19T00:48:21.155Z,37.93
2018-02-19T00:50:49.442Z,41.03
2018-02-19T00:53:17.730Z,39.53
2018-02-19T00:55:46.090Z,39.17
2018-02-19T00:58:14.388Z,38.53
2018-02-19T01:00:42.687Z,37.93
2018-02-19T01:03:10.991Z,36.93
2018-02-19T01:05:39.297Z,37.07
2018-02-19T01:08:07.572Z,38.20
2018-02-19T01:10:35.898Z,37.57
2018-02-19T01:13:04.190Z,37.20
2018-02-19T01:15:32.485Z,37.53
2018-02-19T01:18:00.798Z,39.20
2018-02-19T01:20:29.878Z,35.97
2018-02-19T01:22:58.178Z,37.07
2018-02-19T01:25:26.481Z,36.73
2018-02-19T01:27:54.787Z,39.13
2018-02-19T01:30:23.096Z,37.13
2018-02-19T01:32:51.388Z,38.53
2018-02-19T01:35:19.698Z,37.83
2018-02-19T01:37:47.994Z,37.20
2018-02-19T01:40:16.307Z,36.27
2018-02-19T01:42:44.603Z,35.20
2018-02-19T01:45:12.897Z,35.33
2018-02-19T01:47:41.210Z,37.53
2018-02-19T01:50:15.833Z,36.30
2018-02-19T01:52:43.826Z,35.37
2018-02-19T01:55:12.127Z,36.00
2018-02-19T01:57:40.433Z,36.57
2018-02-19T02:00:08.423Z,35.13
2018-02-19T02:02:36.780Z,35.57
2018-02-19T02:05:05.244Z,34.67
2018-02-19T02:07:33.569Z,35.13
2018-02-19T02:10:01.861Z,34.13
2018-02-19T02:12:30.158Z,36.27
2018-02-19T02:14:58.464Z,35.03
2018-02-19T02:17:26.758Z,35.60
2018-02-19T02:19:55.494Z,36.20
2018-02-19T02:22:24.552Z,34.47
2018-02-19T02:24:52.861Z,35.27
2018-02-19T02:27:21.141Z,36.37
2018-02-19T02:29:49.448Z,35.07
2018-02-19T02:32:17.750Z,34.80
2018-02-19T02:34:46.041Z,35.10
2018-02-19T02:37:14.362Z,35.30
2018-02-19T02:39:42.663Z,33.83
2018-02-19T02:42:11.417Z,34.30
2018-02-19T02:44:40.472Z,31.97
2018-02-19T02:47:08.792Z,32.73
2018-02-19T02:49:37.091Z,33.20
2018-02-19T02:52:05.402Z,33.17
2018-02-19T02:54:33.882Z,32.77
2018-02-19T02:57:02.924Z,31.93
2018-02-19T02:59:31.238Z,32.17
2018-02-19T03:01:59.539Z,34.30
2018-02-19T03:04:27.833Z,32.33
2018-02-19T03:06:56.151Z,31.97
2018-02-19T03:09:24.446Z,32.57
2018-02-19T03:11:52.742Z,32.10
2018-02-19T03:14:21.046Z,31.73
2018-02-19T03:16:49.358Z,31.57
2018-02-19T03:19:17.669Z,31.87
2018-02-19T03:21:45.705Z,31.00
2018-02-19T03:24:14.034Z,30.90
2018-02-19T03:26:42.310Z,30.73
2018-02-19T03:29:10.606Z,30.40
2018-02-19T03:31:38.894Z,30.10
2018-02-19T03:34:07.195Z,29.43
2018-02-19T03:36:35.485Z,30.73
2018-02-19T03:39:03.025Z,29.93
2018-02-19T03:41:31.317Z,29.77
2018-02-19T03:43:59.632Z,31.40
2018-02-19T03:46:27.900Z,29.57
2018-02-19T03:48:56.203Z,30.93
2018-02-19T03:51:24.498Z,28.63
2018-02-19T03:53:52.800Z,29.63
2018-02-19T03:56:21.101Z,29.50
2018-02-19T03:58:49.406Z,29.60
2018-02-19T04:01:17.687Z,29.70
2018-02-19T04:03:45.975Z,29.50
2018-02-19T04:06:14.255Z,30.57
2018-02-19T04:08:42.536Z,30.57
2018-02-19T04:11:10.809Z,30.13
2018-02-19T04:13:39.098Z,29.20
2018-02-19T04:16:07.406Z,29.40
2018-02-19T04:18:35.701Z,31.43
2018-02-19T04:21:04.000Z,30.37
2018-02-19T04:23:32.296Z,29.33
2018-02-19T04:26:00.586Z,29.43
2018-02-19T04:28:29.634Z,30.10
2018-02-19T04:30:57.937Z,31.10
2018-02-19T04:33:26.244Z,29.47
2018-02-19T04:35:54.538Z,28.87
2018-02-19T04:38:22.826Z,30.83
2018-02-19T04:40:51.114Z,30.13
2018-02-19T04:43:19.215Z,29.70
2018-02-19T04:45:58.015Z,30.43
2018-02-19T04:48:26.121Z,29.33
2018-02-19T04:50:54.415Z,30.47
2018-02-19T04:53:22.707Z,30.53
2018-02-19T04:55:50.804Z,30.13
2018-02-19T04:58:19.084Z,30.97
2018-02-19T05:00:47.402Z,31.43
2018-02-19T05:03:15.669Z,30.87
2018-02-19T05:05:44.727Z,29.70
2018-02-19T05:08:13.021Z,28.87
2018-02-19T05:10:41.338Z,29.57
2018-02-19T05:13:09.277Z,31.23
2018-02-19T05:15:37.561Z,30.33
2018-02-19T05:18:05.874Z,30.13
2018-02-19T05:20:34.149Z,31.30
2018-02-19T05:23:03.201Z,29.47
2018-02-19T05:25:31.477Z,31.33
2018-02-19T05:27:59.754Z,31.97
2018-02-19T05:30:28.047Z,31.63
2018-02-19T05:32:56.344Z,34.50
2018-02-19T05:35:24.627Z,31.93
2018-02-19T05:37:52.911Z,32.70
2018-02-19T05:40:21.204Z,33.23
2018-02-19T05:42:49.497Z,33.57
2018-02-19T05:45:17.787Z,33.37
2018-02-19T05:47:46.071Z,33.20
2018-02-19T05:50:14.342Z,33.23
2018-02-19T05:52:42.630Z,32.40
2018-02-19T05:55:10.894Z,34.50
2018-02-19T05:57:39.182Z,33.83
2018-02-19T06:00:07.461Z,34.00
2018-02-19T06:02:35.749Z,31.47
2018-02-19T06:05:03.850Z,34.50
2018-02-19T06:07:32.158Z,34.57
2018-02-19T06:10:00.454Z,34.73
2018-02-19T06:12:28.813Z,34.33
2018-02-19T06:14:57.230Z,35.67
2018-02-19T06:17:25.511Z,36.17
2018-02-19T06:19:54.577Z,35.37
2018-02-19T06:22:22.845Z,34.80
2018-02-19T06:24:51.116Z,34.37
2018-02-19T06:27:19.398Z,35.37
2018-02-19T06:29:47.674Z,35.83
2018-02-19T06:32:15.960Z,35.53
2018-02-19T06:34:44.239Z,35.03
2018-02-19T06:37:12.549Z,35.83
2018-02-19T06:39:40.812Z,36.20
2018-02-19T06:42:09.098Z,36.50
2018-02-19T06:44:37.412Z,36.00
2018-02-19T06:47:07.209Z,35.03
2018-02-19T06:49:35.496Z,36.90
2018-02-19T06:52:03.573Z,34.37
2018-02-19T06:54:31.856Z,35.50
2018-02-19T06:57:00.135Z,35.37
2018-02-19T06:59:28.409Z,35.73
2018-02-19T07:01:56.707Z,36.13
2018-02-19T07:04:25.016Z,35.70
2018-02-19T07:06:54.063Z,35.43
2018-02-19T07:09:22.350Z,36.20
2018-02-19T07:11:50.653Z,34.00
2018-02-19T07:14:18.929Z,34.10
2018-02-19T07:16:47.207Z,35.43
2018-02-19T07:19:15.488Z,35.13
2018-02-19T07:21:43.754Z,35.23
2018-02-19T07:24:12.031Z,35.03
2018-02-19T07:26:40.318Z,35.77
2018-02-19T07:29:08.622Z,36.00
2018-02-19T07:31:36.891Z,35.70
2018-02-19T07:34:05.184Z,35.63
2018-02-19T07:36:33.478Z,36.13
2018-02-19T07:39:01.746Z,36.00
2018-02-19T07:41:30.042Z,34.77
2018-02-19T07:43:58.346Z,37.20
2018-02-19T07:46:26.627Z,35.97
2018-02-19T07:48:54.906Z,35.30
2018-02-19T07:51:23.029Z,36.27
2018-02-19T07:53:51.313Z,35.07
2018-02-19T07:56:19.590Z,34.50
2018-02-19T07:58:47.872Z,34.63
2018-02-19T08:01:16.147Z,35.13
2018-02-19T08:03:44.438Z,35.87
2018-02-19T08:06:12.769Z,34.30
2018-02-19T08:08:41.821Z,35.10
2018-02-19T08:11:10.091Z,34.27
2018-02-19T08:13:38.381Z,34.77
2018-02-19T08:16:06.670Z,35.90
2018-02-19T08:18:34.954Z,34.53
2018-02-19T08:21:03.247Z,35.40
2018-02-19T08:23:31.523Z,33.70
2018-02-19T08:25:59.999Z,35.63
2018-02-19T08:28:28.270Z,35.47
2018-02-19T08:30:56.583Z,35.37
2018-02-19T08:33:25.439Z,33.57
2018-02-19T08:35:53.708Z,34.03
2018-02-19T08:38:21.999Z,33.37
2018-02-19T08:40:50.277Z,34.03
2018-02-19T08:43:18.546Z,34.30
2018-02-19T08:45:46.825Z,34.20
2018-02-19T08:48:15.137Z,34.17
2018-02-19T08:50:43.393Z,32.07
2018-02-19T08:53:11.670Z,33.83
2018-02-19T08:55:39.946Z,35.23
2018-02-19T08:58:08.218Z,35.03
2018-02-19T09:00:36.511Z,34.53
2018-02-19T09:03:04.771Z,36.87
2018-02-19T09:05:33.033Z,34.83
2018-02-19T09:08:01.307Z,33.87
2018-02-19T09:10:29.576Z,33.43
2018-02-19T09:12:57.662Z,34.00
2018-02-19T09:15:25.979Z,35.97
2018-02-19T09:17:54.413Z,34.20
2018-02-19T09:20:22.701Z,34.33
2018-02-19T09:22:51.017Z,32.60
2018-02-19T09:25:19.410Z,33.80
2018-02-19T09:27:47.712Z,34.17
2018-02-19T09:30:15.960Z,35.27
2018-02-19T09:32:44.244Z,34.60
2018-02-19T09:35:12.504Z,33.83
2018-02-19T09:37:40.800Z,34.20
2018-02-19T09:40:09.081Z,34.43
2018-02-19T09:42:37.368Z,32.63
2018-02-19T09:45:05.626Z,34.13
2018-02-19T09:47:33.918Z,34.70
2018-02-19T09:50:02.170Z,33.87
2018-02-19T09:52:30.448Z,33.77
2018-02-19T09:54:58.730Z,33.70
2018-02-19T09:57:27.005Z,34.90
2018-02-19T09:59:55.268Z,34.93
2018-02-19T10:02:23.548Z,32.83
2018-02-19T10:04:51.828Z,34.30
2018-02-19T10:07:20.102Z,35.20
2018-02-19T10:09:48.390Z,33.50
2018-02-19T10:12:16.653Z,34.97
2018-02-19T10:14:44.927Z,35.83
2018-02-19T10:17:13.197Z,35.80
2018-02-19T10:19:41.487Z,34.23
2018-02-19T10:22:09.767Z,33.87
2018-02-19T10:24:38.023Z,33.53
2018-02-19T10:27:06.302Z,34.97
2018-02-19T10:29:34.592Z,33.53
2018-02-19T10:32:02.881Z,33.37
2018-02-19T10:34:31.935Z,34.27
2018-02-19T10:37:00.207Z,33.73
2018-02-19T10:39:28.464Z,34.30
2018-02-19T10:41:56.749Z,33.70
2018-02-19T10:44:25.014Z,34.37
2018-02-19T10:46:53.289Z,33.97
2018-02-19T10:49:21.553Z,33.13
2018-02-19T10:51:49.837Z,32.70
2018-02-19T10:54:18.111Z,34.37
2018-02-19T10:56:46.369Z,34.03
2018-02-19T10:59:14.650Z,33.97
2018-02-19T11:01:42.930Z,33.97
2018-02-19T11:04:10.636Z,32.87
2018-02-19T11:06:39.686Z,35.37
2018-02-19T11:09:07.978Z,37.13
2018-02-19T11:11:36.241Z,34.80
2018-02-19T11:14:04.523Z,36.37
2018-02-19T11:16:32.786Z,34.30
2018-02-19T11:19:01.076Z,32.97
2018-02-19T11:21:29.369Z,33.37
2018-02-19T11:23:57.659Z,32.73
2018-02-19T11:26:25.948Z,34.27
2018-02-19T11:28:54.236Z,32.43
2018-02-19T11:31:22.511Z,31.33
2018-02-19T11:33:50.798Z,32.00
2018-02-19T11:36:20.569Z,32.53
2018-02-19T11:38:55.378Z,33.40
2018-02-19T11:41:17.325Z,32.93
2018-02-19T11:43:45.582Z,31.80
2018-02-19T11:46:13.862Z,32.73
2018-02-19T11:48:42.121Z,32.67
2018-02-19T11:51:10.398Z,31.67
2018-02-19T11:53:38.675Z,30.97
2018-02-19T11:56:06.954Z,31.40
2018-02-19T11:58:35.080Z,31.80
2018-02-19T12:01:03.386Z,31.30
2018-02-19T12:03:32.592Z,30.43
2018-02-19T12:06:00.917Z,31.43
2018-02-19T12:08:29.381Z,31.83
2018-02-19T12:10:57.667Z,30.13
2018-02-19T12:13:25.969Z,31.53
2018-02-19T12:15:54.250Z,31.70
2018-02-19T12:18:22.531Z,31.10
2018-02-19T12:20:50.798Z,32.13
2018-02-19T12:23:19.063Z,32.50
2018-02-19T12:25:47.338Z,31.20
2018-02-19T12:28:15.604Z,31.37
2018-02-19T12:30:43.866Z,33.27
2018-02-19T12:33:12.146Z,30.87
2018-02-19T12:35:41.196Z,30.00
2018-02-19T12:38:09.713Z,36.53
2018-02-19T12:40:37.963Z,33.73
2018-02-19T12:43:06.239Z,31.83
2018-02-19T12:45:34.501Z,31.97
2018-02-19T12:48:02.761Z,30.93
2018-02-19T12:50:31.646Z,30.97
2018-02-19T12:53:00.662Z,30.47
2018-02-19T12:55:28.933Z,31.17
2018-02-19T12:57:57.209Z,30.27
2018-02-19T13:00:25.505Z,29.97
2018-02-19T13:02:54.721Z,30.87
2018-02-19T13:05:22.985Z,31.23
2018-02-19T13:07:51.256Z,30.50
2018-02-19T13:10:19.518Z,30.87
2018-02-19T13:12:48.570Z,31.63
2018-02-19T13:15:16.830Z,31.07
2018-02-19T13:17:45.122Z,31.07
2018-02-19T13:20:13.387Z,32.13
2018-02-19T13:22:41.651Z,30.20
2018-02-19T13:25:09.916Z,31.60
2018-02-19T13:27:38.429Z,30.27
2018-02-19T13:30:06.704Z,30.43
2018-02-19T13:32:34.969Z,30.30
2018-02-19T13:35:03.254Z,29.87
2018-02-19T13:37:31.518Z,29.10
2018-02-19T13:39:59.833Z,29.73
2018-02-19T13:42:28.138Z,31.27
2018-02-19T13:44:56.407Z,28.10
2018-02-19T13:47:24.695Z,30.67
2018-02-19T13:49:53.914Z,29.17
2018-02-19T13:52:22.171Z,29.70
2018-02-19T13:54:50.513Z,28.83
2018-02-19T13:57:18.817Z,30.73
2018-02-19T13:59:47.129Z,28.70
2018-02-19T14:02:15.439Z,29.17
2018-02-19T14:04:43.848Z,29.87
2018-02-19T14:07:12.127Z,29.77
2018-02-19T14:09:40.404Z,28.93
2018-02-19T14:12:08.689Z,30.10
2018-02-19T14:14:36.967Z,30.27
2018-02-19T14:17:04.910Z,29.60
2018-02-19T14:19:33.978Z,31.10
2018-02-19T14:22:02.251Z,28.60
2018-02-19T14:24:30.521Z,28.90
2018-02-19T14:26:58.802Z,30.00
2018-02-19T14:29:27.842Z,30.53
2018-02-19T14:31:56.112Z,30.47
2018-02-19T14:34:24.374Z,31.23
2018-02-19T14:36:52.668Z,31.13
2018-02-19T14:39:21.049Z,31.30
2018-02-19T14:41:49.315Z,29.80
2018-02-19T14:44:17.619Z,30.13
2018-02-19T14:46:45.964Z,31.43
2018-02-19T14:49:14.372Z,30.57
2018-02-19T14:51:42.636Z,29.83
2018-02-19T14:54:11.677Z,29.47
2018-02-19T14:56:39.969Z,29.67
2018-02-19T14:59:08.233Z,30.67
2018-02-19T15:01:36.523Z,32.07
2018-02-19T15:04:04.792Z,30.40
2018-02-19T15:06:33.056Z,31.57
2018-02-19T15:09:01.318Z,30.13
2018-02-19T15:11:29.581Z,31.20
2018-02-19T15:13:57.851Z,31.83
2018-02-19T15:16:26.142Z,31.77
2018-02-19T15:18:54.424Z,31.03
2018-02-19T15:21:22.691Z,32.03
2018-02-19T15:23:50.991Z,29.60
2018-02-19T15:26:19.271Z,31.53
2018-02-19T15:28:47.546Z,32.67
2018-02-19T15:31:15.851Z,30.10
2018-02-19T15:33:44.313Z,33.07
2018-02-19T15:36:12.607Z,32.03
2018-02-19T15:38:40.906Z,30.73
2018-02-19T15:41:09.992Z,30.27
2018-02-19T15:43:38.283Z,31.47
2018-02-19T15:46:06.551Z,31.97
2018-02-19T15:48:34.856Z,31.03
2018-02-19T15:51:03.167Z,32.10
2018-02-19T15:53:31.489Z,32.63
2018-02-19T15:55:59.805Z,30.73
2018-02-19T15:58:28.102Z,32.87
2018-02-19T16:00:56.389Z,30.70
2018-02-19T16:03:24.697Z,30.33
2018-02-19T16:05:52.965Z,31.43
2018-02-19T16:08:21.246Z,31.43
2018-02-19T16:10:49.532Z,31.27
2018-02-19T16:13:17.858Z,31.07
2018-02-19T16:15:46.144Z,30.47
2018-02-19T16:18:14.553Z,31.43
2018-02-19T16:20:42.875Z,29.97
2018-02-19T16:23:11.175Z,30.67
2018-02-19T16:25:40.209Z,31.00
2018-02-19T16:28:08.637Z,31.30
2018-02-19T16:30:36.926Z,31.30
2018-02-19T16:33:05.244Z,30.93
2018-02-19T16:35:33.517Z,31.87
2018-02-19T16:38:02.553Z,32.63
2018-02-19T16:40:30.852Z,31.73
2018-02-19T16:42:59.117Z,31.07
2018-02-19T16:45:27.395Z,32.00
2018-02-19T16:47:55.670Z,32.50
2018-02-19T16:50:23.977Z,33.20
2018-02-19T16:52:52.455Z,30.97
2018-02-19T16:55:20.746Z,31.60
2018-02-19T16:57:49.018Z,32.37
2018-02-19T17:00:17.302Z,31.37
2018-02-19T17:02:45.606Z,31.83
2018-02-19T17:05:13.906Z,31.33
2018-02-19T17:07:42.186Z,33.40
2018-02-19T17:10:10.483Z,32.30
2018-02-19T17:12:38.766Z,32.50
2018-02-19T17:15:07.070Z,34.07
2018-02-19T17:17:35.371Z,32.63
2018-02-19T17:20:03.643Z,33.40
2018-02-19T17:22:31.946Z,33.43
2018-02-19T17:25:00.219Z,34.57
2018-02-19T17:27:28.508Z,34.80
2018-02-19T17:29:56.773Z,33.63
2018-02-19T17:32:25.077Z,33.70
2018-02-19T17:34:55.049Z,33.00
2018-02-19T17:37:23.347Z,34.60
2018-02-19T17:39:51.626Z,34.40
2018-02-19T17:42:19.910Z,35.57
2018-02-19T17:44:48.195Z,35.70
2018-02-19T17:47:16.509Z,32.73
2018-02-19T17:49:44.774Z,35.37
2018-02-19T17:52:13.042Z,35.33
2018-02-19T17:54:41.349Z,35.27
2018-02-19T17:57:09.617Z,35.30
2018-02-19T17:59:37.902Z,35.10
2018-02-19T18:02:05.968Z,34.70
2018-02-19T18:04:34.248Z,33.30
2018-02-19T18:07:02.520Z,33.20
2018-02-19T18:09:30.790Z,34.67
2018-02-19T18:11:59.067Z,34.23
2018-02-19T18:14:27.341Z,34.87
2018-02-19T18:16:55.630Z,34.50
2018-02-19T18:19:23.992Z,34.83
2018-02-19T18:21:52.274Z,34.80
2018-02-19T18:24:20.554Z,33.53
2018-02-19T18:26:48.836Z,34.87
2018-02-19T18:29:17.113Z,33.73
2018-02-19T18:31:45.381Z,33.90
2018-02-19T18:34:13.707Z,34.20
2018-02-19T18:36:42.177Z,33.50
2018-02-19T18:39:10.502Z,35.23
2018-02-19T18:41:38.774Z,33.20
2018-02-19T18:44:07.060Z,34.60
2018-02-19T18:46:35.343Z,32.90
2018-02-19T18:49:03.619Z,32.67
2018-02-19T18:51:31.724Z,34.30
2018-02-19T18:54:00.057Z,32.83
2018-02-19T18:56:28.372Z,33.20
2018-02-19T18:58:57.593Z,34.10
2018-02-19T19:01:26.056Z,31.67
2018-02-19T19:03:54.338Z,33.40
2018-02-19T19:06:22.624Z,32.20
2018-02-19T19:09:02.083Z,32.37
2018-02-19T19:11:30.384Z,32.30
2018-02-19T19:13:58.678Z,32.90
2018-02-19T19:16:26.942Z,32.40
2018-02-19T19:18:55.230Z,32.60
2018-02-19T19:21:23.514Z,33.63
2018-02-19T19:23:52.761Z,33.27
2018-02-19T19:26:21.173Z,31.00
2018-02-19T19:28:50.216Z,31.80
2018-02-19T19:31:18.488Z,34.13
2018-02-19T19:33:47.127Z,31.47
2018-02-19T19:36:15.586Z,31.00
2018-02-19T19:41:42.859Z,31.77
2018-02-19T19:44:11.240Z,32.17
2018-02-19T19:46:39.544Z,31.77
2018-02-19T19:49:07.844Z,31.90
2018-02-19T19:51:36.141Z,31.00
2018-02-19T19:54:04.441Z,32.47
2018-02-19T19:56:32.724Z,30.50
2018-02-19T19:59:01.686Z,31.77
2018-02-19T20:01:30.757Z,31.63
2018-02-19T20:03:59.062Z,31.47
2018-02-19T20:06:27.376Z,32.80
2018-02-19T20:08:55.560Z,32.70
2018-02-19T20:11:23.884Z,30.73
2018-02-19T20:13:52.222Z,30.53
2018-02-19T20:16:20.706Z,31.30
2018-02-19T20:18:49.032Z,32.73
2018-02-19T20:21:17.391Z,31.00
2018-02-19T20:23:45.660Z,32.40
2018-02-19T20:26:13.970Z,31.67
2018-02-19T20:28:42.317Z,33.30
2018-02-19T20:31:10.612Z,32.90
2018-02-19T20:33:38.951Z,32.63
2018-02-19T20:36:07.253Z,32.93
2018-02-19T20:38:35.529Z,32.80
2018-02-19T20:41:03.836Z,31.47
2018-02-19T20:43:32.119Z,33.30
2018-02-19T20:46:00.415Z,32.07
2018-02-19T20:48:28.693Z,32.73
2018-02-19T20:50:56.969Z,31.57
2018-02-19T20:53:25.252Z,34.13
2018-02-19T20:55:53.530Z,33.53
2018-02-19T20:58:21.807Z,33.17
2018-02-19T21:00:50.065Z,33.60
2018-02-19T21:03:18.391Z,34.67
2018-02-19T21:05:46.712Z,33.63
2018-02-19T21:08:15.020Z,33.20
2018-02-19T21:10:43.294Z,34.37
2018-02-19T21:13:11.590Z,33.30
2018-02-19T21:15:41.634Z,33.30
2018-02-19T21:18:09.953Z,34.17
2018-02-19T21:20:38.265Z,35.67
2018-02-19T21:23:06.925Z,34.70
2018-02-19T21:25:35.965Z,34.47
2018-02-19T21:28:04.802Z,33.70
2018-02-19T21:30:33.115Z,33.07
2018-02-19T21:33:01.410Z,33.47
2018-02-19T21:35:29.153Z,31.43
2018-02-19T21:37:57.408Z,32.97
2018-02-19T21:40:25.755Z,33.43
2018-02-19T21:42:54.043Z,32.37
2018-02-19T21:45:22.400Z,34.30
2018-02-19T21:47:50.759Z,34.13
2018-02-19T21:50:19.050Z,33.93
2018-02-19T21:52:47.337Z,33.67
2018-02-19T21:55:15.606Z,31.97
2018-02-19T21:57:44.196Z,32.50
2018-02-19T22:00:12.459Z,33.37
2018-02-19T22:02:42.117Z,34.55
2018-02-19T22:05:11.596Z,33.62
2018-02-19T22:07:40.436Z,33.47
2018-02-19T22:10:09.406Z,33.17
2018-02-19T22:12:37.720Z,33.88
2018-02-19T22:15:06.553Z,33.00
2018-02-19T22:17:36.446Z,34.70
2018-02-19T22:20:04.948Z,34.08
2018-02-19T22:22:34.441Z,32.72
2018-02-19T22:25:02.992Z,34.88
2018-02-19T22:27:31.750Z,33.45
2018-02-19T22:30:00.805Z,34.37
2018-02-19T22:32:29.409Z,35.25
2018-02-19T22:34:58.429Z,34.83
2018-02-19T22:37:27.863Z,34.10
2018-02-19T22:39:56.460Z,35.70
2018-02-19T22:42:25.253Z,34.17
2018-02-19T22:44:54.146Z,35.97
2018-02-19T22:47:22.682Z,36.10
2018-02-19T22:49:50.960Z,34.00
2018-02-19T22:52:19.543Z,33.65
2018-02-19T22:54:47.807Z,33.22
2018-02-19T22:57:16.199Z,33.42
2018-02-19T22:59:46.611Z,34.50
2018-02-19T23:02:15.827Z,33.85
2018-02-19T23:04:45.126Z,34.37
2018-02-19T23:07:13.414Z,34.43
2018-02-19T23:09:42.970Z,35.15
2018-02-19T23:12:12.513Z,33.10
2018-02-19T23:14:42.768Z,34.03
2018-02-19T23:17:11.069Z,34.50
2018-02-19T23:19:39.570Z,34.30
2018-02-19T23:22:08.310Z,31.12
2018-02-19T23:24:36.591Z,33.70
2018-02-19T23:27:04.749Z,35.63
2018-02-19T23:29:34.208Z,34.33
2018-02-19T23:32:04.117Z,35.88
2018-02-19T23:34:32.851Z,37.08
2018-02-19T23:37:01.640Z,39.38
2018-02-19T23:39:30.563Z,37.45
2018-02-19T23:41:59.116Z,39.00
2018-02-19T23:44:28.309Z,36.60
2018-02-19T23:46:56.871Z,37.33
2018-02-19T23:49:26.135Z,37.25
2018-02-19T23:51:55.803Z,36.97
2018-02-19T23:54:24.503Z,39.38
2018-02-19T23:56:53.050Z,38.05
2018-02-19T23:59:21.728Z,39.40
